Time;durP1;ratioP1;P1;durP2;ratioP2;P2;SDS_P1;SDS_P2;PMS_P1;PMS_P2;Temp;Humidity;BMP_temperature;BMP_pressure;BME280_temperature;BME280_humidity;BME280_pressure;Samples;Min_cycle;Max_cycle;Signal;HPM_P1;HPM_P2
2021/07/17 00:01:50;;;;;;;1.30;1.20;;;18.50;90.10;;;;;;5028039;28;20028;-79
2021/07/17 00:04:15;;;;;;;1.95;1.40;;;18.50;90.10;;;;;;5013478;28;20037;-79
2021/07/17 00:06:41;;;;;;;2.13;1.40;;;18.50;90.10;;;;;;5016076;28;20030;-80
2021/07/17 00:09:06;;;;;;;1.90;1.42;;;18.40;90.20;;;;;;5013969;28;20022;-79
2021/07/17 00:11:32;;;;;;;2.58;1.50;;;18.40;90.20;;;;;;5014995;28;20025;-80
2021/07/17 00:13:58;;;;;;;2.30;1.40;;;18.40;90.20;;;;;;5014035;28;20356;-80
2021/07/17 00:16:26;;;;;;;2.03;1.77;;;18.40;90.20;;;;;;5017033;28;20510;-79
2021/07/17 00:18:55;;;;;;;1.63;1.52;;;18.40;90.20;;;;;;5033199;28;20033;-79
2021/07/17 00:21:22;;;;;;;;;;;18.40;90.20;;;;;;5034036;28;20398;-80
2021/07/17 00:23:47;;;;;;;2.30;1.60;;;18.30;90.30;;;;;;5032592;28;19917;-79
2021/07/17 00:26:13;;;;;;;1.80;1.63;;;18.30;90.30;;;;;;5013926;28;20112;-80
2021/07/17 00:28:39;;;;;;;1.92;1.50;;;18.30;90.40;;;;;;5014735;28;20108;-79
2021/07/17 00:31:04;;;;;;;2.80;1.25;;;18.20;90.40;;;;;;5013532;28;20034;-78
2021/07/17 00:33:30;;;;;;;2.63;1.40;;;18.30;90.40;;;;;;5013226;28;20076;-79
2021/07/17 00:35:55;;;;;;;2.72;1.83;;;18.30;90.40;;;;;;5029327;28;20096;-79
2021/07/17 00:38:20;;;;;;;1.88;1.45;;;18.20;90.30;;;;;;5033326;28;20498;-80
2021/07/17 00:40:46;;;;;;;1.58;1.40;;;18.20;90.40;;;;;;5033188;28;20029;-80
2021/07/17 00:43:11;;;;;;;1.70;1.48;;;18.20;90.40;;;;;;5033410;28;20037;-79
2021/07/17 00:45:38;;;;;;;2.30;1.92;;;18.20;90.40;;;;;;5018457;28;20100;-80
2021/07/17 00:48:03;;;;;;;2.40;1.70;;;18.20;90.30;;;;;;5013107;28;20030;-79
2021/07/17 00:50:29;;;;;;;2.97;1.27;;;18.10;90.40;;;;;;5012220;28;20021;-79
2021/07/17 00:52:54;;;;;;;2.10;1.40;;;18.10;90.50;;;;;;5013504;28;20021;-79
2021/07/17 00:55:25;;;;;;;3.58;1.40;;;18.10;90.50;;;;;;5025083;28;20501;-79
2021/07/17 00:57:52;;;;;;;1.77;1.45;;;18.10;90.50;;;;;;5031493;28;20060;-79
2021/07/17 01:00:21;;;;;;;1.80;1.33;;;18.10;90.40;;;;;;5025853;28;20050;-80
2021/07/17 01:02:51;;;;;;;1.52;1.23;;;18.00;90.40;;;;;;5013787;28;20033;-79
2021/07/17 01:05:17;;;;;;;;;;;18.00;90.50;;;;;;5017781;28;20065;-80
2021/07/17 01:07:48;;;;;;;3.28;2.53;;;18.00;90.60;;;;;;5016220;28;19935;-81
2021/07/17 01:10:18;;;;;;;1.30;1.20;;;17.90;90.60;;;;;;5036949;28;20052;-81
2021/07/17 01:12:45;;;;;;;3.35;1.50;;;18.00;90.60;;;;;;5037039;28;20393;-80
2021/07/17 01:15:11;;;;;;;2.70;1.38;;;17.90;90.60;;;;;;5036713;28;20099;-81
2021/07/17 01:17:36;;;;;;;3.20;1.67;;;17.90;90.50;;;;;;5035495;28;20049;-79
2021/07/17 01:20:06;;;;;;;2.30;1.40;;;18.00;90.50;;;;;;5017177;28;20425;-80
2021/07/17 01:22:32;;;;;;;3.08;1.90;;;17.90;90.50;;;;;;5017882;28;20038;-80
2021/07/17 01:24:58;;;;;;;3.65;2.20;;;17.80;90.50;;;;;;5016623;28;20091;-82
2021/07/17 01:27:23;;;;;;;3.05;1.90;;;17.80;90.60;;;;;;5021470;28;20388;-80
2021/07/17 01:29:49;;;;;;;2.17;1.85;;;17.70;90.70;;;;;;5036368;28;20081;-80
2021/07/17 01:32:19;;;;;;;4.07;2.03;;;17.80;90.60;;;;;;5036874;28;20094;-81
2021/07/17 01:34:45;;;;;;;2.17;1.40;;;17.80;90.60;;;;;;5036826;28;20034;-80
2021/07/17 01:37:10;;;;;;;2.20;1.77;;;17.80;90.60;;;;;;5019197;28;20026;-80
2021/07/17 01:39:36;;;;;;;2.28;1.58;;;17.80;90.60;;;;;;5016732;28;20030;-80
2021/07/17 01:42:01;;;;;;;1.67;1.45;;;17.80;90.50;;;;;;5017826;28;20072;-79
2021/07/17 01:44:27;;;;;;;2.97;1.55;;;17.80;90.50;;;;;;5017698;28;20418;-80
2021/07/17 01:46:53;;;;;;;2.75;2.03;;;17.80;90.50;;;;;;5018711;28;20018;-79
2021/07/17 01:49:19;;;;;;;1.70;1.60;;;17.80;90.50;;;;;;5016694;28;20035;-79
2021/07/17 01:51:45;;;;;;;3.38;1.80;;;17.70;90.50;;;;;;5016517;28;20026;-79
2021/07/17 01:54:10;;;;;;;2.28;1.67;;;17.70;90.50;;;;;;5015714;28;20034;-80
2021/07/17 01:56:36;;;;;;;2.50;1.65;;;17.60;90.60;;;;;;5016517;28;20018;-80
2021/07/17 01:59:01;;;;;;;2.70;1.80;;;17.60;90.60;;;;;;5017005;28;20030;-79
2021/07/17 02:01:27;;;;;;;2.53;1.60;;;17.60;90.70;;;;;;5016284;28;20021;-79
2021/07/17 02:03:53;;;;;;;2.58;1.77;;;17.50;90.70;;;;;;5022214;28;20053;-79
2021/07/17 02:06:26;;;;;;;1.83;1.45;;;17.50;90.70;;;;;;5036023;28;20464;-79
2021/07/17 02:08:53;;;;;;;2.47;1.38;;;17.50;90.70;;;;;;5036048;28;20036;-80
2021/07/17 02:11:19;;;;;;;2.33;1.60;;;17.60;90.70;;;;;;5028290;28;20032;-79
2021/07/17 02:13:53;;;;;;;2.00;1.73;;;17.60;90.60;;;;;;5015776;28;20487;-79
2021/07/17 02:16:20;;;;;;;1.65;1.55;;;17.60;90.50;;;;;;5015964;28;20087;-79
2021/07/17 02:18:47;;;;;;;0.95;0.90;;;17.60;90.50;;;;;;5016024;28;20018;-78
2021/07/17 02:21:15;;;;;;;1.90;1.20;;;17.60;90.50;;;;;;5034676;28;20054;-80
2021/07/17 02:23:41;;;;;;;1.25;1.15;;;17.60;90.50;;;;;;5035503;28;20065;-80
2021/07/17 02:26:07;;;;;;;1.35;1.13;;;17.70;90.50;;;;;;5034368;28;20024;-81
2021/07/17 02:28:34;;;;;;;1.40;1.20;;;17.70;90.40;;;;;;5033539;28;20498;-80
2021/07/17 02:31:00;;;;;;;3.47;2.35;;;17.70;90.40;;;;;;5035637;28;20075;-77
2021/07/17 02:33:25;;;;;;;2.85;1.73;;;17.70;90.40;;;;;;5035656;28;20416;-77
2021/07/17 02:35:51;;;;;;;2.80;2.00;;;17.60;90.40;;;;;;5035554;28;20041;-79
2021/07/17 02:38:17;;;;;;;2.45;1.65;;;17.60;90.50;;;;;;5022457;28;20034;-79
2021/07/17 02:40:42;;;;;;;2.05;1.35;;;17.50;90.60;;;;;;5015606;28;20364;-80
2021/07/17 02:43:08;;;;;;;3.75;1.70;;;17.50;90.60;;;;;;5015068;28;20080;-79
2021/07/17 02:45:33;;;;;;;3.67;1.27;;;17.60;90.60;;;;;;5015751;28;20097;-79
2021/07/17 02:47:59;;;;;;;1.77;1.50;;;17.50;90.60;;;;;;5015994;28;20033;-80
2021/07/17 02:50:25;;;;;;;4.10;2.13;;;17.50;90.60;;;;;;5015454;28;20079;-80
2021/07/17 02:52:51;;;;;;;2.28;1.48;;;17.50;90.60;;;;;;5015455;28;20026;-79
2021/07/17 02:55:16;;;;;;;3.50;1.95;;;17.60;90.60;;;;;;5016410;28;20026;-79
2021/07/17 02:57:42;;;;;;;2.60;1.45;;;17.50;90.60;;;;;;5015093;28;20025;-80
2021/07/17 03:00:11;;;;;;;1.60;1.35;;;17.50;90.60;;;;;;5015148;28;20021;-79
2021/07/17 03:02:36;;;;;;;4.57;2.25;;;17.50;90.60;;;;;;5015386;28;20113;-79
2021/07/17 03:05:02;;;;;;;1.95;1.65;;;17.50;90.60;;;;;;5016326;28;20109;-80
2021/07/17 03:07:28;;;;;;;2.38;1.77;;;17.40;90.70;;;;;;5015263;28;20033;-79
2021/07/17 03:09:53;;;;;;;2.85;1.65;;;17.40;90.70;;;;;;5015001;28;20030;-80
2021/07/17 03:12:19;;;;;;;1.90;1.45;;;17.40;90.80;;;;;;5014681;28;20049;-80
2021/07/17 03:14:45;;;;;;;1.73;1.63;;;17.30;90.80;;;;;;5031974;28;20033;-79
2021/07/17 03:17:12;;;;;;;2.17;1.80;;;17.30;90.80;;;;;;5034996;28;20030;-79
2021/07/17 03:19:38;;;;;;;2.70;1.65;;;17.20;90.80;;;;;;5034858;28;20034;-81
2021/07/17 03:22:04;;;;;;;2.70;1.55;;;17.20;90.90;;;;;;5034376;28;20028;-80
2021/07/17 03:24:30;;;;;;;2.25;1.80;;;17.20;90.90;;;;;;5015812;28;20390;-79
2021/07/17 03:26:56;;;;;;;2.53;1.75;;;17.20;90.90;;;;;;5015021;28;20022;-80
2021/07/17 03:29:21;;;;;;;1.45;1.27;;;17.10;90.90;;;;;;5014385;28;20113;-79
2021/07/17 03:31:47;;;;;;;2.05;1.65;;;17.10;90.90;;;;;;5014886;28;20490;-79
2021/07/17 03:34:12;;;;;;;2.03;1.60;;;17.10;90.90;;;;;;5013630;28;20030;-79
2021/07/17 03:36:38;;;;;;;3.60;1.60;;;17.10;90.80;;;;;;5014526;28;20022;-81
2021/07/17 03:39:03;;;;;;;2.42;1.73;;;17.10;90.80;;;;;;5014654;28;20026;-81
2021/07/17 03:41:29;;;;;;;2.40;1.60;;;17.00;90.90;;;;;;5027005;28;20020;-79
2021/07/17 03:43:54;;;;;;;2.30;1.50;;;16.90;90.90;;;;;;5034192;28;20099;-80
2021/07/17 03:46:20;;;;;;;1.85;1.15;;;16.80;91.00;;;;;;5034185;28;20021;-81
2021/07/17 03:48:45;;;;;;;1.20;1.10;;;16.80;91.00;;;;;;5034249;28;20032;-80
2021/07/17 03:51:11;;;;;;;1.40;1.15;;;16.90;91.00;;;;;;5023870;28;20025;-79
2021/07/17 03:53:37;;;;;;;1.67;1.30;;;16.80;90.90;;;;;;5014351;28;20105;-80
2021/07/17 03:56:02;;;;;;;2.35;1.80;;;16.90;90.90;;;;;;5013892;28;20046;-80
2021/07/17 03:58:28;;;;;;;4.63;1.73;;;16.90;90.90;;;;;;5014222;28;20039;-80
2021/07/17 04:00:53;;;;;;;1.75;1.50;;;16.70;90.80;;;;;;5014338;28;20479;-80
2021/07/17 04:03:19;;;;;;;3.20;1.45;;;16.60;91.00;;;;;;5014038;28;20034;-81
2021/07/17 04:05:44;;;;;;;3.67;1.80;;;16.60;91.00;;;;;;5025292;28;20064;-80
2021/07/17 04:08:11;;;;;;;1.17;1.05;;;16.60;91.00;;;;;;5033753;28;20030;-79
2021/07/17 04:10:36;;;;;;;1.48;1.25;;;16.60;91.10;;;;;;5033269;28;20025;-80
2021/07/17 04:13:05;;;;;;;2.13;1.30;;;16.60;91.10;;;;;;5033711;28;20022;-80
2021/07/17 04:15:31;;;;;;;2.67;1.50;;;16.60;91.00;;;;;;5023271;28;20749;-80
2021/07/17 04:17:56;;;;;;;1.60;1.40;;;16.50;91.10;;;;;;5013922;28;20478;-80
2021/07/17 04:20:22;;;;;;;3.33;1.58;;;16.40;91.10;;;;;;5013915;28;20104;-78
2021/07/17 04:22:47;;;;;;;2.38;1.35;;;16.40;91.20;;;;;;5013822;28;20046;-79
2021/07/17 04:25:13;;;;;;;1.77;1.15;;;16.40;91.20;;;;;;5014427;28;20092;-78
2021/07/17 04:27:39;;;;;;;2.53;1.48;;;16.30;91.20;;;;;;5013725;28;20030;-80
2021/07/17 04:30:07;;;;;;;1.52;1.10;;;16.30;91.20;;;;;;5013895;28;20022;-79
2021/07/17 04:32:32;;;;;;;4.13;1.63;;;16.30;91.20;;;;;;5013746;28;20105;-79
2021/07/17 04:34:58;;;;;;;3.05;1.55;;;16.30;91.20;;;;;;5028635;28;20454;-79
2021/07/17 04:37:23;;;;;;;3.88;1.95;;;16.20;91.30;;;;;;5032666;28;20025;-78
2021/07/17 04:39:49;;;;;;;2.80;1.45;;;16.20;91.30;;;;;;5032702;28;20021;-78
2021/07/17 04:42:15;;;;;;;1.50;1.40;;;16.20;91.40;;;;;;5033159;28;20021;-80
2021/07/17 04:44:41;;;;;;;3.50;1.80;;;16.20;91.30;;;;;;5020618;28;20030;-79
2021/07/17 04:47:07;;;;;;;2.40;1.42;;;16.30;91.40;;;;;;5012475;28;20014;-79
2021/07/17 04:49:32;;;;;;;2.70;1.90;;;16.30;91.30;;;;;;5013403;28;20029;-78
2021/07/17 04:51:58;;;;;;;2.72;2.08;;;16.30;91.30;;;;;;5013816;28;20494;-80
2021/07/17 04:54:23;;;;;;;2.78;1.90;;;16.30;91.30;;;;;;5012869;28;20022;-78
2021/07/17 04:56:49;;;;;;;6.10;2.47;;;16.30;91.30;;;;;;5014074;28;20022;-79
2021/07/17 04:59:14;;;;;;;3.95;2.25;;;16.30;91.30;;;;;;5013875;28;20084;-78
2021/07/17 05:01:40;;;;;;;2.58;1.77;;;16.30;91.40;;;;;;5014466;28;20491;-80
2021/07/17 05:04:05;;;;;;;4.90;2.17;;;16.30;91.30;;;;;;5013224;28;20386;-80
2021/07/17 05:06:31;;;;;;;2.53;2.13;;;16.30;91.40;;;;;;5013324;28;20451;-78
2021/07/17 05:08:57;;;;;;;2.67;1.67;;;16.30;91.40;;;;;;5012863;28;20032;-76
2021/07/17 05:11:22;;;;;;;2.25;1.60;;;16.30;91.40;;;;;;5025691;28;20104;-81
2021/07/17 05:13:48;;;;;;;2.30;1.63;;;16.30;91.40;;;;;;5033173;28;20032;-80
2021/07/17 05:16:14;;;;;;;2.90;1.88;;;16.40;91.40;;;;;;5032917;28;20022;-81
2021/07/17 05:18:40;;;;;;;2.58;1.50;;;16.40;91.40;;;;;;5033054;28;20135;-80
2021/07/17 05:21:05;;;;;;;2.42;1.73;;;16.50;91.30;;;;;;5031516;28;20348;-82
2021/07/17 05:23:31;;;;;;;2.83;1.58;;;16.50;91.30;;;;;;5021144;28;20046;-81
2021/07/17 05:25:56;;;;;;;2.30;1.40;;;16.60;91.30;;;;;;5013309;28;20026;-81
2021/07/17 05:28:22;;;;;;;1.45;1.27;;;16.70;91.20;;;;;;5013975;28;20038;-83
2021/07/17 05:30:49;;;;;;;1.58;1.10;;;16.80;91.10;;;;;;5013222;28;20026;-82
2021/07/17 05:33:14;;;;;;;1.88;1.10;;;16.80;91.10;;;;;;5013103;28;20058;-83
2021/07/17 05:35:40;;;;;;;2.15;1.23;;;16.90;91.10;;;;;;5013073;28;20053;-81
2021/07/17 05:38:06;;;;;;;2.15;1.33;;;16.90;91.10;;;;;;5024916;28;20120;-83
2021/07/17 05:40:32;;;;;;;1.63;1.50;;;17.00;91.10;;;;;;5032844;28;20022;-81
2021/07/17 05:42:58;;;;;;;1.30;1.17;;;17.10;91.10;;;;;;5032726;28;20052;-84
2021/07/17 05:45:23;;;;;;;1.88;1.45;;;17.00;91.10;;;;;;5033009;28;20034;-82
2021/07/17 05:47:49;;;;;;;2.58;1.20;;;17.10;91.10;;;;;;5033186;28;20049;-80
2021/07/17 05:50:16;;;;;;;2.75;1.60;;;17.10;91.10;;;;;;5035911;28;20034;-85
2021/07/17 05:52:42;;;;;;;3.63;1.77;;;17.20;91.10;;;;;;5036522;28;20033;-84
2021/07/17 05:55:08;;;;;;;3.50;1.75;;;17.20;91.10;;;;;;5019324;28;20026;-87
2021/07/17 05:57:34;;;;;;;2.58;1.85;;;17.20;91.10;;;;;;5015892;28;20048;-86
2021/07/17 05:59:59;;;;;;;2.88;2.00;;;17.20;91.20;;;;;;5016830;28;20467;-83
2021/07/17 06:02:26;;;;;;;2.30;1.85;;;17.30;91.20;;;;;;5016484;28;20033;-80
2021/07/17 06:04:51;;;;;;;3.22;1.70;;;17.30;91.20;;;;;;5016432;28;20107;-83
2021/07/17 06:07:17;;;;;;;3.17;1.55;;;17.40;91.10;;;;;;5017753;28;20386;-84
2021/07/17 06:09:43;;;;;;;2.63;1.58;;;17.50;91.10;;;;;;5015121;28;20072;-83
2021/07/17 06:12:10;;;;;;;2.08;1.60;;;17.60;91.10;;;;;;5016423;28;20022;-83
2021/07/17 06:14:36;;;;;;;1.42;1.23;;;17.60;91.00;;;;;;5017193;28;20394;-86
2021/07/17 06:17:02;;;;;;;2.05;1.40;;;17.70;91.00;;;;;;5035432;28;20030;-83
2021/07/17 06:19:28;;;;;;;1.65;1.10;;;17.90;91.00;;;;;;5036164;28;20025;-81
2021/07/17 06:21:53;;;;;;;1.52;1.10;;;18.00;90.90;;;;;;5036189;28;20128;-87
2021/07/17 06:24:19;;;;;;;0.90;0.90;;;18.10;90.80;;;;;;5036152;28;20037;-81
2021/07/17 06:26:44;;;;;;;2.25;1.20;;;18.20;90.80;;;;;;5035732;28;20035;-78
2021/07/17 06:29:10;;;;;;;2.30;1.25;;;18.30;90.70;;;;;;5035786;28;20025;-77
2021/07/17 06:31:36;;;;;;;5.55;2.00;;;18.40;90.70;;;;;;5035590;28;20036;-77
2021/07/17 06:34:01;;;;;;;1.73;1.40;;;18.50;90.70;;;;;;5034981;28;20022;-75
2021/07/17 06:36:27;;;;;;;2.60;1.55;;;18.50;90.70;;;;;;5034429;28;20470;-78
2021/07/17 06:38:52;;;;;;;2.85;1.80;;;18.60;90.70;;;;;;5034984;28;20445;-77
2021/07/17 06:41:18;;;;;;;1.60;1.50;;;18.70;90.60;;;;;;5034149;28;20109;-78
2021/07/17 06:43:43;;;;;;;1.13;1.05;;;18.80;90.70;;;;;;5034361;28;20528;-82
2021/07/17 06:46:09;;;;;;;1.20;1.10;;;18.90;90.50;;;;;;5035453;28;20026;-84
2021/07/17 06:48:34;;;;;;;1.70;0.98;;;19.00;90.50;;;;;;5035109;28;20071;-81
2021/07/17 06:51:00;;;;;;;2.17;1.55;;;19.10;90.50;;;;;;5035355;28;20032;-82
2021/07/17 06:53:25;;;;;;;2.30;1.60;;;19.10;90.40;;;;;;5035242;28;20033;-79
2021/07/17 06:55:51;;;;;;;1.98;1.40;;;19.20;90.30;;;;;;5033996;28;20030;-81
2021/07/17 06:58:17;;;;;;;2.65;1.42;;;19.20;90.40;;;;;;5035478;28;20037;-87
2021/07/17 07:00:43;;;;;;;1.33;1.23;;;19.30;90.40;;;;;;5034005;28;20037;-86
2021/07/17 07:03:08;;;;;;;1.35;1.15;;;19.40;90.70;;;;;;5035187;28;20105;-89
2021/07/17 07:05:35;;;;;;;2.15;1.15;;;19.60;90.30;;;;;;5035846;28;20048;-86
2021/07/17 07:08:01;;;;;;;1.30;1.08;;;19.60;90.20;;;;;;5036132;28;20569;-85
2021/07/17 07:10:26;;;;;;;1.23;1.10;;;19.70;90.30;;;;;;5036666;28;20026;-84
2021/07/17 07:12:52;;;;;;;1.83;1.10;;;19.70;90.30;;;;;;5035804;28;20029;-86
2021/07/17 07:15:18;;;;;;;1.23;0.90;;;19.60;90.30;;;;;;5035783;28;20026;-88
2021/07/17 07:17:44;;;;;;;1.45;0.95;;;19.70;90.30;;;;;;5035539;28;20029;-91
2021/07/17 07:20:12;;;;;;;1.15;1.10;;;19.70;90.40;;;;;;5027841;28;20061;-89
2021/07/17 07:22:38;;;;;;;0.85;0.75;;;19.70;90.40;;;;;;5015854;28;20069;-83
2021/07/17 07:25:05;;;;;;;1.52;1.20;;;19.80;90.40;;;;;;5015111;28;20069;-87
2021/07/17 07:27:30;;;;;;;1.13;1.05;;;19.80;90.30;;;;;;5014697;28;20018;-91
2021/07/17 07:29:55;;;;;;;1.38;0.90;;;19.80;90.30;;;;;;5015268;28;20132;-87
2021/07/17 07:32:21;;;;;;;1.60;1.20;;;19.80;90.30;;;;;;5014935;28;20148;-87
2021/07/17 07:34:47;;;;;;;1.27;1.00;;;19.90;90.30;;;;;;5014888;28;20505;-84
2021/07/17 07:37:12;;;;;;;0.80;0.75;;;19.90;90.30;;;;;;5014881;28;20103;-84
2021/07/17 07:39:38;;;;;;;1.63;0.80;;;20.00;90.20;;;;;;5015131;28;20025;-87
2021/07/17 07:42:03;;;;;;;1.13;1.00;;;20.10;90.20;;;;;;5015047;28;20042;-81
2021/07/17 07:44:30;;;;;;;1.83;1.35;;;20.10;90.10;;;;;;5014951;28;20034;-88
2021/07/17 07:46:55;;;;;;;1.70;1.10;;;20.20;90.10;;;;;;5016038;28;20029;-87
2021/07/17 07:49:21;;;;;;;1.52;1.38;;;20.20;90.10;;;;;;4995757;28;20479;-90
2021/07/17 07:51:47;;;;;;;1.00;0.95;;;20.20;90.10;;;;;;4996264;28;20049;-87
2021/07/17 07:54:12;;;;;;;1.63;0.95;;;20.30;90.10;;;;;;4996633;28;20511;-90
2021/07/17 07:56:38;;;;;;;1.10;0.80;;;20.40;90.00;;;;;;4996524;28;20022;-87
2021/07/17 07:59:03;;;;;;;1.20;1.10;;;20.50;90.00;;;;;;4995294;28;20480;-89
2021/07/17 08:01:29;;;;;;;1.38;0.80;;;20.50;89.70;;;;;;5010170;28;20057;-84
2021/07/17 08:03:54;;;;;;;1.05;0.98;;;20.60;89.70;;;;;;5014695;28;20212;-86
2021/07/17 08:06:20;;;;;;;1.23;0.90;;;20.60;89.80;;;;;;5014644;28;20453;-85
2021/07/17 08:08:46;;;;;;;1.27;1.08;;;20.70;89.70;;;;;;5014830;28;20048;-86
2021/07/17 08:11:11;;;;;;;1.20;0.98;;;20.80;89.50;;;;;;5014688;28;20018;-85
2021/07/17 08:13:37;;;;;;;1.85;0.82;;;20.80;89.40;;;;;;5025648;28;20026;-86
2021/07/17 08:16:02;;;;;;;0.90;0.90;;;20.90;89.30;;;;;;5034947;28;20086;-86
2021/07/17 08:18:29;;;;;;;3.28;1.20;;;21.00;89.30;;;;;;5034937;28;20028;-85
2021/07/17 08:20:55;;;;;;;0.80;0.77;;;21.00;89.20;;;;;;5034364;28;20022;-87
2021/07/17 08:23:21;;;;;;;1.33;1.20;;;21.10;89.00;;;;;;5033796;28;20096;-81
2021/07/17 08:25:47;;;;;;;1.15;1.00;;;21.10;89.00;;;;;;5034068;28;20029;-86
2021/07/17 08:28:12;;;;;;;1.85;1.75;;;21.10;89.20;;;;;;5023136;28;20026;-85
2021/07/17 08:30:38;;;;;;;1.20;1.02;;;21.10;89.10;;;;;;5013878;28;20030;-87
2021/07/17 08:33:04;;;;;;;1.10;1.00;;;21.30;88.90;;;;;;5014393;28;20026;-86
2021/07/17 08:35:30;;;;;;;1.13;0.95;;;21.30;88.80;;;;;;5013622;28;20463;-83
2021/07/17 08:37:55;;;;;;;4.18;1.30;;;21.40;88.80;;;;;;5014070;28;20037;-82
2021/07/17 08:40:21;;;;;;;1.55;1.13;;;21.50;88.80;;;;;;5014275;28;20076;-81
2021/07/17 08:42:50;;;;;;;1.05;0.80;;;21.60;88.30;;;;;;5013942;28;20029;-83
2021/07/17 08:45:17;;;;;;;1.85;1.48;;;21.60;88.40;;;;;;5014351;28;20057;-83
2021/07/17 08:47:44;;;;;;;1.05;1.00;;;21.70;88.10;;;;;;5014037;28;20057;-82
2021/07/17 08:50:13;;;;;;;1.25;1.05;;;21.70;88.10;;;;;;5013806;28;20033;-84
2021/07/17 08:52:39;;;;;;;0.75;0.75;;;21.80;87.80;;;;;;5014011;28;20022;-85
2021/07/17 08:55:08;;;;;;;1.85;1.17;;;21.90;88.60;;;;;;5022801;28;20030;-84
2021/07/17 08:57:38;;;;;;;1.30;0.90;;;22.00;87.80;;;;;;5033035;28;20029;-85
2021/07/17 09:00:10;;;;;;;0.90;0.52;;;22.10;87.70;;;;;;5032927;28;20018;-84
2021/07/17 09:02:44;;;;;;;0.57;0.57;;;22.20;87.60;;;;;;5033234;28;20037;-82
2021/07/17 09:05:12;;;;;;;1.85;0.75;;;22.20;87.40;;;;;;5017715;28;20088;-82
2021/07/17 09:07:39;;;;;;;1.57;1.17;;;22.30;87.40;;;;;;5013570;28;20022;-83
2021/07/17 09:10:52;;;;;;;0.88;0.60;;;22.30;87.20;;;;;;5013666;28;20525;-84
2021/07/17 09:13:19;;;;;;;0.50;0.50;;;22.50;87.30;;;;;;4952811;28;20024;-85
2021/07/17 09:15:48;;;;;;;3.30;0.73;;;22.50;87.00;;;;;;4933822;29;20118;-83
2021/07/17 09:18:14;;;;;;;0.60;0.60;;;22.60;86.90;;;;;;4933993;29;20036;-83
2021/07/17 09:20:53;;;;;;;0.50;0.50;;;22.70;87.00;;;;;;4917984;29;20067;-84
2021/07/17 09:23:24;;;;;;;0.52;0.45;;;22.80;86.70;;;;;;4934293;29;20048;-86
2021/07/17 09:25:50;;;;;;;0.50;0.50;;;22.80;86.50;;;;;;4938880;29;20156;-88
2021/07/17 09:28:17;;;;;;;0.60;0.60;;;22.80;86.70;;;;;;4937788;29;20063;-85
2021/07/17 09:30:44;;;;;;;0.80;0.55;;;22.80;86.80;;;;;;4937787;29;20047;-83
2021/07/17 09:33:09;;;;;;;0.93;0.63;;;22.90;86.80;;;;;;4937457;29;20028;-84
2021/07/17 09:35:38;;;;;;;0.65;0.60;;;22.90;86.50;;;;;;4950265;29;20050;-83
2021/07/17 09:38:06;;;;;;;0.70;0.70;;;23.00;86.50;;;;;;4956833;29;20168;-84
2021/07/17 09:40:52;;;;;;;0.82;0.82;;;23.00;86.60;;;;;;4956818;28;20035;-83
2021/07/17 09:43:38;;;;;;;0.52;0.47;;;23.10;86.50;;;;;;4956492;29;20027;-85
2021/07/17 09:46:17;;;;;;;0.47;0.47;;;23.20;86.40;;;;;;4960329;28;20190;-85
2021/07/17 09:48:58;;;;;;;3.03;1.50;;;23.20;86.20;;;;;;5017554;28;20030;-81
2021/07/17 09:51:30;;;;;;;1.50;1.08;;;23.20;84.40;;;;;;5016900;28;20364;-82
2021/07/17 09:53:58;;;;;;;0.77;0.73;;;23.10;85.40;;;;;;5024748;28;20032;-80
2021/07/17 09:56:26;;;;;;;0.83;0.67;;;23.20;85.50;;;;;;5037347;28;20114;-83
2021/07/17 09:58:54;;;;;;;0.70;0.70;;;23.30;85.40;;;;;;5035629;28;20072;-83
2021/07/17 10:01:24;;;;;;;1.13;0.80;;;23.40;85.40;;;;;;5034545;28;20085;-83
2021/07/17 10:03:52;;;;;;;0.73;0.60;;;23.40;85.40;;;;;;5036115;28;20032;-84
2021/07/17 10:06:40;;;;;;;0.80;0.60;;;23.50;85.40;;;;;;5026013;28;20034;-84
2021/07/17 10:09:12;;;;;;;0.65;0.63;;;23.50;85.10;;;;;;5016555;28;20022;-84
2021/07/17 10:11:38;;;;;;;0.57;0.57;;;23.50;85.00;;;;;;5015917;28;20026;-83
2021/07/17 10:14:24;;;;;;;0.40;0.40;;;23.60;85.00;;;;;;5016169;28;20060;-83
2021/07/17 10:16:54;;;;;;;0.40;0.40;;;23.80;84.80;;;;;;5016124;28;20112;-82
2021/07/17 10:19:25;;;;;;;2.05;1.02;;;23.90;84.50;;;;;;5016339;28;20017;-80
2021/07/17 10:21:51;;;;;;;0.95;0.60;;;24.00;84.20;;;;;;5035677;28;20061;-76
2021/07/17 10:24:17;;;;;;;1.67;0.75;;;23.90;84.20;;;;;;5034114;28;20368;-81
2021/07/17 10:26:43;;;;;;;1.13;0.60;;;24.00;84.20;;;;;;5035213;28;20483;-78
2021/07/17 10:29:11;;;;;;;0.57;0.57;;;24.00;84.80;;;;;;5035460;28;20421;-80
2021/07/17 10:31:38;;;;;;;0.68;0.68;;;24.20;83.50;;;;;;5034775;28;20025;-79
2021/07/17 10:34:05;;;;;;;1.05;0.80;;;24.20;83.60;;;;;;5015863;28;20455;-83
2021/07/17 10:36:33;;;;;;;0.60;0.47;;;24.30;83.20;;;;;;5014704;28;20032;-84
2021/07/17 10:39:07;;;;;;;0.60;0.57;;;24.30;83.50;;;;;;5015863;28;20075;-84
2021/07/17 10:41:35;;;;;;;0.40;0.40;;;24.40;83.50;;;;;;5015382;28;20104;-81
2021/07/17 10:44:01;;;;;;;1.45;0.70;;;24.60;83.20;;;;;;5015602;28;20018;-75
2021/07/17 10:46:37;;;;;;;0.40;0.40;;;24.70;82.70;;;;;;5018947;28;20036;-81
2021/07/17 10:49:06;;;;;;;1.40;0.70;;;24.60;82.80;;;;;;5035327;28;20047;-82
2021/07/17 10:51:35;;;;;;;0.60;0.60;;;24.60;82.80;;;;;;5017305;28;20025;-79
2021/07/17 10:54:10;;;;;;;0.73;0.50;;;24.60;83.00;;;;;;5014040;28;20022;-81
2021/07/17 10:56:39;;;;;;;0.40;0.40;;;24.70;82.80;;;;;;4993270;28;20038;-87
2021/07/17 10:59:28;;;;;;;0.30;0.30;;;24.70;82.90;;;;;;4993784;28;20526;-81
2021/07/17 11:01:57;;;;;;;0.32;0.30;;;24.80;83.10;;;;;;5013016;28;20025;-83
2021/07/17 11:04:36;;;;;;;1.10;0.22;;;24.90;82.80;;;;;;5012727;28;20033;-80
2021/07/17 11:07:16;;;;;;;0.40;0.38;;;25.10;82.30;;;;;;5012665;28;20109;-78
2021/07/17 11:10:08;;;;;;;0.65;0.65;;;25.10;82.20;;;;;;5012223;28;20130;-81
2021/07/17 11:12:44;;;;;;;0.35;0.30;;;25.10;82.20;;;;;;5012675;28;20457;-82
2021/07/17 11:15:10;;;;;;;0.40;0.40;;;25.10;82.60;;;;;;5019293;28;20021;-82
2021/07/17 11:17:46;;;;;;;1.10;0.55;;;25.30;82.60;;;;;;5032141;28;20591;-83
2021/07/17 11:20:31;;;;;;;0.60;0.40;;;25.50;82.20;;;;;;5031855;28;20030;-81
2021/07/17 11:23:06;;;;;;;0.40;0.30;;;25.60;81.90;;;;;;5031883;28;20103;-82
2021/07/17 11:25:32;;;;;;;0.50;0.50;;;25.70;81.70;;;;;;5009118;28;20049;-79
2021/07/17 11:27:58;;;;;;;0.40;0.25;;;25.70;81.80;;;;;;5011257;28;20471;-82
2021/07/17 11:30:25;;;;;;;0.60;0.60;;;26.00;81.80;;;;;;5013677;28;20036;-78
2021/07/17 11:33:05;;;;;;;0.68;0.40;;;26.40;81.10;;;;;;5013561;28;20368;-76
2021/07/17 11:35:39;;;;;;;0.32;0.32;;;27.00;80.10;;;;;;5014634;28;20161;-82
2021/07/17 11:38:07;;;;;;;0.10;0.10;;;27.70;79.00;;;;;;5014691;28;20158;-81
2021/07/17 11:40:38;;;;;;;1.23;0.43;;;28.40;77.40;;;;;;5014117;28;20018;-79
2021/07/17 11:43:05;;;;;;;0.98;0.43;;;28.80;76.60;;;;;;5014725;28;20034;-78
2021/07/17 11:45:31;;;;;;;0.68;0.50;;;28.90;76.20;;;;;;5014466;28;20034;-79
2021/07/17 11:48:07;;;;;;;2.08;0.57;;;29.00;76.40;;;;;;5014171;28;20022;-77
2021/07/17 11:50:33;;;;;;;0.57;0.57;;;29.50;75.70;;;;;;5026570;28;20037;-77
2021/07/17 11:52:58;;;;;;;1.05;0.90;;;29.50;74.70;;;;;;5033618;28;20029;-82
2021/07/17 11:55:24;;;;;;;0.40;0.40;;;29.60;74.70;;;;;;5034120;28;20025;-80
2021/07/17 11:57:49;;;;;;;0.40;0.40;;;29.60;75.00;;;;;;5033942;28;20036;-81
2021/07/17 12:00:20;;;;;;;0.38;0.38;;;29.90;74.80;;;;;;5033027;28;20044;-81
2021/07/17 12:02:54;;;;;;;0.40;0.40;;;30.30;74.20;;;;;;5034080;28;20032;-83
2021/07/17 12:05:20;;;;;;;0.35;0.35;;;30.70;73.70;;;;;;5033888;28;20029;-77
2021/07/17 12:07:47;;;;;;;0.80;0.60;;;30.80;73.10;;;;;;5033482;28;20079;-81
2021/07/17 12:10:14;;;;;;;0.52;0.50;;;30.70;72.90;;;;;;5033733;28;20029;-79
2021/07/17 12:12:42;;;;;;;0.55;0.55;;;30.10;73.50;;;;;;5033939;28;20017;-82
2021/07/17 12:15:14;;;;;;;0.70;0.70;;;29.80;74.20;;;;;;5032044;28;20045;-78
2021/07/17 12:17:52;;;;;;;1.00;0.80;;;29.50;74.00;;;;;;5029006;28;20028;-78
2021/07/17 12:20:24;;;;;;;2.15;1.15;;;29.10;74.30;;;;;;5013890;28;20033;-83
2021/07/17 12:22:51;;;;;;;0.98;0.77;;;29.00;73.10;;;;;;5013341;28;20557;-82
2021/07/17 12:25:23;;;;;;;1.38;0.80;;;28.70;74.20;;;;;;5013887;28;20033;-77
2021/07/17 12:28:06;;;;;;;0.80;0.50;;;28.60;74.20;;;;;;5013714;28;20069;-78
2021/07/17 12:30:35;;;;;;;0.93;0.75;;;28.40;74.90;;;;;;4994197;28;20081;-76
2021/07/17 12:33:21;;;;;;;0.80;0.80;;;28.50;73.60;;;;;;4992952;28;20033;-75
2021/07/17 12:35:58;;;;;;;0.93;0.70;;;28.50;72.60;;;;;;4994102;28;20019;-79
2021/07/17 12:38:26;;;;;;;0.47;0.47;;;28.50;73.70;;;;;;4993600;28;20050;-78
2021/07/17 12:41:01;;;;;;;0.77;0.77;;;28.80;73.40;;;;;;5011440;28;20017;-78
2021/07/17 12:43:28;;;;;;;0.50;0.50;;;29.00;72.70;;;;;;5017376;28;20034;-78
2021/07/17 12:46:07;;;;;;;0.52;0.52;;;28.80;73.20;;;;;;5010996;28;20021;-78
2021/07/17 12:48:43;;;;;;;0.73;0.73;;;28.90;73.20;;;;;;4993916;28;20049;-74
2021/07/17 12:51:14;;;;;;;0.80;0.70;;;28.90;72.20;;;;;;4993521;28;20183;-75